sensor_id;sensor_type;location;lat;lon;timestamp;P1;durP1;ratioP1;P2;durP2;ratioP2
70733;SDS011;58320;48.804;9.252;2023-07-09T00:02:00;8.47;;;4.67;;
70733;SDS011;58320;48.804;9.252;2023-07-09T00:04:26;7.23;;;3.90;;
70733;SDS011;58320;48.804;9.252;2023-07-09T00:06:54;6.63;;;3.72;;
70733;SDS011;58320;48.804;9.252;2023-07-09T00:09:22;7.25;;;4.20;;
70733;SDS011;58320;48.804;9.252;2023-07-09T00:11:49;9.05;;;4.28;;
70733;SDS011;58320;48.804;9.252;2023-07-09T00:14:15;7.20;;;3.70;;
70733;SDS011;58320;48.804;9.252;2023-07-09T00:16:42;7.63;;;3.60;;
70733;SDS011;58320;48.804;9.252;2023-07-09T00:19:11;5.53;;;3.38;;
70733;SDS011;58320;48.804;9.252;2023-07-09T00:21:41;7.20;;;3.83;;
70733;SDS011;58320;48.804;9.252;2023-07-09T00:24:10;6.97;;;3.88;;
70733;SDS011;58320;48.804;9.252;2023-07-09T00:26:37;7.03;;;3.67;;
70733;SDS011;58320;48.804;9.252;2023-07-09T00:29:07;6.53;;;3.77;;
70733;SDS011;58320;48.804;9.252;2023-07-09T00:31:37;7.30;;;3.87;;
70733;SDS011;58320;48.804;9.252;2023-07-09T00:34:06;6.80;;;3.63;;
70733;SDS011;58320;48.804;9.252;2023-07-09T00:36:36;6.88;;;3.70;;
70733;SDS011;58320;48.804;9.252;2023-07-09T00:39:02;6.53;;;3.85;;
70733;SDS011;58320;48.804;9.252;2023-07-09T00:41:36;6.55;;;3.70;;
70733;SDS011;58320;48.804;9.252;2023-07-09T00:49:34;6.32;;;3.67;;
70733;SDS011;58320;48.804;9.252;2023-07-09T00:52:20;7.80;;;3.67;;
70733;SDS011;58320;48.804;9.252;2023-07-09T00:55:01;6.35;;;3.63;;
70733;SDS011;58320;48.804;9.252;2023-07-09T00:57:33;6.50;;;3.60;;
70733;SDS011;58320;48.804;9.252;2023-07-09T01:00:04;9.97;;;3.80;;
70733;SDS011;58320;48.804;9.252;2023-07-09T01:02:37;6.97;;;3.33;;
70733;SDS011;58320;48.804;9.252;2023-07-09T01:05:03;6.95;;;3.83;;
70733;SDS011;58320;48.804;9.252;2023-07-09T01:07:31;6.47;;;3.90;;
70733;SDS011;58320;48.804;9.252;2023-07-09T01:09:57;7.63;;;4.18;;
70733;SDS011;58320;48.804;9.252;2023-07-09T01:12:23;6.07;;;3.50;;
70733;SDS011;58320;48.804;9.252;2023-07-09T01:14:49;8.02;;;4.50;;
70733;SDS011;58320;48.804;9.252;2023-07-09T01:17:19;6.20;;;4.03;;
70733;SDS011;58320;48.804;9.252;2023-07-09T01:19:48;7.95;;;3.88;;
70733;SDS011;58320;48.804;9.252;2023-07-09T01:22:16;9.18;;;4.35;;
70733;SDS011;58320;48.804;9.252;2023-07-09T01:24:51;7.53;;;4.10;;
70733;SDS011;58320;48.804;9.252;2023-07-09T01:27:37;7.90;;;3.85;;
70733;SDS011;58320;48.804;9.252;2023-07-09T01:30:11;7.47;;;3.63;;
70733;SDS011;58320;48.804;9.252;2023-07-09T01:32:47;7.68;;;3.88;;
70733;SDS011;58320;48.804;9.252;2023-07-09T01:35:15;6.45;;;3.78;;
70733;SDS011;58320;48.804;9.252;2023-07-09T01:37:44;5.43;;;3.67;;
70733;SDS011;58320;48.804;9.252;2023-07-09T01:40:11;8.97;;;3.90;;
70733;SDS011;58320;48.804;9.252;2023-07-09T01:42:41;6.28;;;3.70;;
70733;SDS011;58320;48.804;9.252;2023-07-09T01:45:08;7.90;;;4.10;;
70733;SDS011;58320;48.804;9.252;2023-07-09T01:47:37;7.38;;;3.65;;
70733;SDS011;58320;48.804;9.252;2023-07-09T01:50:05;7.38;;;3.63;;
70733;SDS011;58320;48.804;9.252;2023-07-09T01:52:32;6.57;;;3.67;;
70733;SDS011;58320;48.804;9.252;2023-07-09T01:54:59;7.63;;;3.70;;
70733;SDS011;58320;48.804;9.252;2023-07-09T01:57:26;7.20;;;4.00;;
70733;SDS011;58320;48.804;9.252;2023-07-09T02:00:04;5.65;;;3.65;;
70733;SDS011;58320;48.804;9.252;2023-07-09T02:02:38;5.95;;;3.80;;
70733;SDS011;58320;48.804;9.252;2023-07-09T02:05:09;6.88;;;4.53;;
70733;SDS011;58320;48.804;9.252;2023-07-09T02:07:38;6.90;;;3.83;;
70733;SDS011;58320;48.804;9.252;2023-07-09T02:10:04;6.20;;;3.63;;
70733;SDS011;58320;48.804;9.252;2023-07-09T02:12:30;6.38;;;3.50;;
70733;SDS011;58320;48.804;9.252;2023-07-09T02:14:56;7.13;;;3.60;;
70733;SDS011;58320;48.804;9.252;2023-07-09T02:17:21;8.70;;;3.80;;
70733;SDS011;58320;48.804;9.252;2023-07-09T02:19:47;7.53;;;4.15;;
70733;SDS011;58320;48.804;9.252;2023-07-09T02:22:13;6.03;;;3.37;;
70733;SDS011;58320;48.804;9.252;2023-07-09T02:24:39;6.75;;;3.63;;
70733;SDS011;58320;48.804;9.252;2023-07-09T02:27:05;7.57;;;3.50;;
70733;SDS011;58320;48.804;9.252;2023-07-09T02:29:34;6.77;;;4.00;;
70733;SDS011;58320;48.804;9.252;2023-07-09T02:32:00;7.83;;;3.87;;
70733;SDS011;58320;48.804;9.252;2023-07-09T02:34:27;7.05;;;3.80;;
70733;SDS011;58320;48.804;9.252;2023-07-09T02:36:55;6.70;;;3.67;;
70733;SDS011;58320;48.804;9.252;2023-07-09T02:39:22;6.10;;;3.90;;
70733;SDS011;58320;48.804;9.252;2023-07-09T02:41:48;7.30;;;3.70;;
70733;SDS011;58320;48.804;9.252;2023-07-09T02:44:14;8.23;;;4.03;;
70733;SDS011;58320;48.804;9.252;2023-07-09T02:46:41;5.32;;;3.67;;
70733;SDS011;58320;48.804;9.252;2023-07-09T02:49:08;5.43;;;3.60;;
70733;SDS011;58320;48.804;9.252;2023-07-09T02:51:37;6.88;;;3.97;;
70733;SDS011;58320;48.804;9.252;2023-07-09T02:54:03;8.27;;;4.00;;
70733;SDS011;58320;48.804;9.252;2023-07-09T02:56:29;7.38;;;3.92;;
70733;SDS011;58320;48.804;9.252;2023-07-09T02:58:55;7.03;;;3.88;;
70733;SDS011;58320;48.804;9.252;2023-07-09T03:01:22;7.28;;;4.07;;
70733;SDS011;58320;48.804;9.252;2023-07-09T03:03:50;9.15;;;3.90;;
70733;SDS011;58320;48.804;9.252;2023-07-09T03:06:18;8.73;;;3.80;;
70733;SDS011;58320;48.804;9.252;2023-07-09T03:08:45;6.17;;;3.90;;
70733;SDS011;58320;48.804;9.252;2023-07-09T03:11:12;7.10;;;3.97;;
70733;SDS011;58320;48.804;9.252;2023-07-09T03:13:39;6.47;;;4.10;;
70733;SDS011;58320;48.804;9.252;2023-07-09T03:16:05;7.43;;;3.60;;
70733;SDS011;58320;48.804;9.252;2023-07-09T03:18:31;5.88;;;3.30;;
70733;SDS011;58320;48.804;9.252;2023-07-09T03:20:57;8.40;;;3.55;;
70733;SDS011;58320;48.804;9.252;2023-07-09T03:23:24;7.43;;;3.60;;
70733;SDS011;58320;48.804;9.252;2023-07-09T03:25:50;8.17;;;3.53;;
70733;SDS011;58320;48.804;9.252;2023-07-09T03:28:15;9.00;;;3.67;;
70733;SDS011;58320;48.804;9.252;2023-07-09T03:30:42;6.00;;;3.50;;
70733;SDS011;58320;48.804;9.252;2023-07-09T03:33:09;6.00;;;3.60;;
70733;SDS011;58320;48.804;9.252;2023-07-09T03:35:36;6.55;;;3.80;;
70733;SDS011;58320;48.804;9.252;2023-07-09T03:38:03;7.27;;;4.00;;
70733;SDS011;58320;48.804;9.252;2023-07-09T03:40:30;6.10;;;3.50;;
70733;SDS011;58320;48.804;9.252;2023-07-09T03:42:56;5.63;;;3.53;;
70733;SDS011;58320;48.804;9.252;2023-07-09T03:45:22;5.90;;;3.17;;
70733;SDS011;58320;48.804;9.252;2023-07-09T03:47:48;7.37;;;3.83;;
70733;SDS011;58320;48.804;9.252;2023-07-09T03:50:14;6.90;;;3.60;;
70733;SDS011;58320;48.804;9.252;2023-07-09T03:52:40;6.07;;;3.83;;
70733;SDS011;58320;48.804;9.252;2023-07-09T03:55:06;6.10;;;3.72;;
70733;SDS011;58320;48.804;9.252;2023-07-09T03:57:32;6.90;;;4.07;;
70733;SDS011;58320;48.804;9.252;2023-07-09T03:59:59;7.23;;;3.93;;
70733;SDS011;58320;48.804;9.252;2023-07-09T04:02:27;6.65;;;4.05;;
70733;SDS011;58320;48.804;9.252;2023-07-09T04:04:53;7.22;;;4.15;;
70733;SDS011;58320;48.804;9.252;2023-07-09T04:07:19;7.87;;;4.20;;
70733;SDS011;58320;48.804;9.252;2023-07-09T04:09:45;7.28;;;4.32;;
70733;SDS011;58320;48.804;9.252;2023-07-09T04:12:10;8.13;;;4.00;;
70733;SDS011;58320;48.804;9.252;2023-07-09T04:14:37;10.27;;;4.30;;
70733;SDS011;58320;48.804;9.252;2023-07-09T04:17:05;8.15;;;4.07;;
70733;SDS011;58320;48.804;9.252;2023-07-09T04:19:31;9.80;;;4.10;;
70733;SDS011;58320;48.804;9.252;2023-07-09T04:21:57;6.77;;;3.90;;
70733;SDS011;58320;48.804;9.252;2023-07-09T04:24:22;9.47;;;4.03;;
70733;SDS011;58320;48.804;9.252;2023-07-09T04:26:48;6.63;;;4.28;;
70733;SDS011;58320;48.804;9.252;2023-07-09T04:29:14;7.27;;;4.50;;
70733;SDS011;58320;48.804;9.252;2023-07-09T04:31:40;8.98;;;4.28;;
70733;SDS011;58320;48.804;9.252;2023-07-09T04:34:07;9.07;;;4.63;;
70733;SDS011;58320;48.804;9.252;2023-07-09T04:36:33;6.97;;;4.03;;
70733;SDS011;58320;48.804;9.252;2023-07-09T04:39:00;7.20;;;3.67;;
70733;SDS011;58320;48.804;9.252;2023-07-09T04:41:26;10.57;;;4.20;;
70733;SDS011;58320;48.804;9.252;2023-07-09T04:43:51;10.03;;;4.03;;
70733;SDS011;58320;48.804;9.252;2023-07-09T04:46:17;8.80;;;4.20;;
70733;SDS011;58320;48.804;9.252;2023-07-09T04:48:43;7.03;;;4.20;;
70733;SDS011;58320;48.804;9.252;2023-07-09T04:51:08;7.60;;;4.05;;
70733;SDS011;58320;48.804;9.252;2023-07-09T04:53:34;5.90;;;3.67;;
70733;SDS011;58320;48.804;9.252;2023-07-09T04:56:00;7.97;;;3.92;;
70733;SDS011;58320;48.804;9.252;2023-07-09T04:58:27;7.45;;;4.13;;
70733;SDS011;58320;48.804;9.252;2023-07-09T05:00:57;6.32;;;3.90;;
70733;SDS011;58320;48.804;9.252;2023-07-09T05:03:24;7.30;;;4.03;;
70733;SDS011;58320;48.804;9.252;2023-07-09T05:05:50;8.35;;;4.20;;
70733;SDS011;58320;48.804;9.252;2023-07-09T05:08:16;6.47;;;3.97;;
70733;SDS011;58320;48.804;9.252;2023-07-09T05:10:43;5.20;;;3.70;;
70733;SDS011;58320;48.804;9.252;2023-07-09T05:13:10;5.85;;;3.53;;
70733;SDS011;58320;48.804;9.252;2023-07-09T05:15:39;7.17;;;4.20;;
70733;SDS011;58320;48.804;9.252;2023-07-09T05:18:07;7.30;;;4.10;;
70733;SDS011;58320;48.804;9.252;2023-07-09T05:20:33;9.00;;;4.53;;
70733;SDS011;58320;48.804;9.252;2023-07-09T05:22:59;9.32;;;4.35;;
70733;SDS011;58320;48.804;9.252;2023-07-09T05:25:25;9.60;;;4.30;;
70733;SDS011;58320;48.804;9.252;2023-07-09T05:27:51;7.40;;;4.57;;
70733;SDS011;58320;48.804;9.252;2023-07-09T05:30:18;8.95;;;4.50;;
70733;SDS011;58320;48.804;9.252;2023-07-09T05:32:44;7.22;;;3.90;;
70733;SDS011;58320;48.804;9.252;2023-07-09T05:35:11;8.15;;;4.40;;
70733;SDS011;58320;48.804;9.252;2023-07-09T05:37:37;7.60;;;4.20;;
70733;SDS011;58320;48.804;9.252;2023-07-09T05:40:03;10.05;;;4.78;;
70733;SDS011;58320;48.804;9.252;2023-07-09T05:42:33;8.90;;;4.38;;
70733;SDS011;58320;48.804;9.252;2023-07-09T05:44:59;7.77;;;5.03;;
70733;SDS011;58320;48.804;9.252;2023-07-09T05:47:25;7.05;;;4.10;;
70733;SDS011;58320;48.804;9.252;2023-07-09T05:49:51;8.40;;;4.18;;
70733;SDS011;58320;48.804;9.252;2023-07-09T05:52:18;6.78;;;3.80;;
70733;SDS011;58320;48.804;9.252;2023-07-09T05:54:48;9.15;;;4.20;;
70733;SDS011;58320;48.804;9.252;2023-07-09T05:57:15;6.77;;;4.07;;
70733;SDS011;58320;48.804;9.252;2023-07-09T05:59:42;8.07;;;4.38;;
70733;SDS011;58320;48.804;9.252;2023-07-09T06:02:11;6.65;;;4.10;;
70733;SDS011;58320;48.804;9.252;2023-07-09T06:04:39;8.93;;;4.40;;
70733;SDS011;58320;48.804;9.252;2023-07-09T06:07:05;6.53;;;4.00;;
70733;SDS011;58320;48.804;9.252;2023-07-09T06:09:31;7.63;;;4.35;;
70733;SDS011;58320;48.804;9.252;2023-07-09T06:11:57;6.63;;;4.30;;
70733;SDS011;58320;48.804;9.252;2023-07-09T06:14:23;7.50;;;4.25;;
70733;SDS011;58320;48.804;9.252;2023-07-09T06:16:50;8.63;;;4.10;;
70733;SDS011;58320;48.804;9.252;2023-07-09T06:19:15;6.40;;;4.30;;
70733;SDS011;58320;48.804;9.252;2023-07-09T06:21:41;6.85;;;3.90;;
70733;SDS011;58320;48.804;9.252;2023-07-09T06:24:07;8.82;;;4.40;;
70733;SDS011;58320;48.804;9.252;2023-07-09T06:26:34;8.77;;;4.37;;
70733;SDS011;58320;48.804;9.252;2023-07-09T06:28:59;7.53;;;4.40;;
70733;SDS011;58320;48.804;9.252;2023-07-09T06:31:26;8.82;;;4.18;;
70733;SDS011;58320;48.804;9.252;2023-07-09T06:33:51;7.53;;;4.63;;
70733;SDS011;58320;48.804;9.252;2023-07-09T06:36:18;8.00;;;4.50;;
70733;SDS011;58320;48.804;9.252;2023-07-09T06:38:44;7.05;;;4.00;;
70733;SDS011;58320;48.804;9.252;2023-07-09T06:41:11;7.57;;;4.65;;
70733;SDS011;58320;48.804;9.252;2023-07-09T06:43:38;7.22;;;4.00;;
70733;SDS011;58320;48.804;9.252;2023-07-09T06:46:05;7.70;;;4.83;;
70733;SDS011;58320;48.804;9.252;2023-07-09T06:48:32;8.52;;;4.50;;
70733;SDS011;58320;48.804;9.252;2023-07-09T06:50:59;7.40;;;4.20;;
70733;SDS011;58320;48.804;9.252;2023-07-09T06:53:25;8.68;;;4.70;;
70733;SDS011;58320;48.804;9.252;2023-07-09T06:55:52;6.97;;;4.57;;
70733;SDS011;58320;48.804;9.252;2023-07-09T06:58:20;7.03;;;4.28;;
70733;SDS011;58320;48.804;9.252;2023-07-09T07:00:49;6.47;;;4.43;;
70733;SDS011;58320;48.804;9.252;2023-07-09T07:03:15;7.23;;;4.03;;
70733;SDS011;58320;48.804;9.252;2023-07-09T07:05:44;8.07;;;4.22;;
70733;SDS011;58320;48.804;9.252;2023-07-09T07:08:15;7.32;;;4.15;;
70733;SDS011;58320;48.804;9.252;2023-07-09T07:10:43;10.55;;;4.25;;
70733;SDS011;58320;48.804;9.252;2023-07-09T07:13:10;7.47;;;4.60;;
70733;SDS011;58320;48.804;9.252;2023-07-09T07:15:39;7.50;;;4.57;;
70733;SDS011;58320;48.804;9.252;2023-07-09T07:18:05;6.72;;;4.50;;
70733;SDS011;58320;48.804;9.252;2023-07-09T07:20:32;7.30;;;4.38;;
70733;SDS011;58320;48.804;9.252;2023-07-09T07:22:59;7.00;;;4.70;;
70733;SDS011;58320;48.804;9.252;2023-07-09T07:25:25;9.75;;;4.63;;
70733;SDS011;58320;48.804;9.252;2023-07-09T07:27:51;9.33;;;4.60;;
70733;SDS011;58320;48.804;9.252;2023-07-09T07:30:18;7.40;;;4.53;;
70733;SDS011;58320;48.804;9.252;2023-07-09T07:32:44;8.20;;;4.32;;
70733;SDS011;58320;48.804;9.252;2023-07-09T07:35:12;6.97;;;4.15;;
70733;SDS011;58320;48.804;9.252;2023-07-09T07:37:39;7.38;;;4.30;;
70733;SDS011;58320;48.804;9.252;2023-07-09T07:40:08;8.73;;;4.18;;
70733;SDS011;58320;48.804;9.252;2023-07-09T07:42:35;9.90;;;4.50;;
70733;SDS011;58320;48.804;9.252;2023-07-09T07:45:02;8.47;;;4.23;;
70733;SDS011;58320;48.804;9.252;2023-07-09T07:47:28;8.75;;;4.35;;
70733;SDS011;58320;48.804;9.252;2023-07-09T07:49:55;6.28;;;4.40;;
70733;SDS011;58320;48.804;9.252;2023-07-09T07:52:22;6.80;;;4.28;;
70733;SDS011;58320;48.804;9.252;2023-07-09T07:54:48;7.30;;;4.15;;
70733;SDS011;58320;48.804;9.252;2023-07-09T07:57:14;8.77;;;4.38;;
70733;SDS011;58320;48.804;9.252;2023-07-09T07:59:40;6.93;;;4.30;;
70733;SDS011;58320;48.804;9.252;2023-07-09T08:02:06;7.73;;;4.20;;
70733;SDS011;58320;48.804;9.252;2023-07-09T08:04:38;6.78;;;4.13;;
70733;SDS011;58320;48.804;9.252;2023-07-09T08:07:05;6.88;;;4.43;;
70733;SDS011;58320;48.804;9.252;2023-07-09T08:09:35;7.38;;;4.10;;
70733;SDS011;58320;48.804;9.252;2023-07-09T08:12:02;7.67;;;4.27;;
70733;SDS011;58320;48.804;9.252;2023-07-09T08:14:35;7.73;;;4.20;;
70733;SDS011;58320;48.804;9.252;2023-07-09T08:17:01;5.95;;;3.75;;
70733;SDS011;58320;48.804;9.252;2023-07-09T08:19:27;5.45;;;3.65;;
70733;SDS011;58320;48.804;9.252;2023-07-09T08:21:53;8.57;;;4.47;;
70733;SDS011;58320;48.804;9.252;2023-07-09T08:24:19;7.57;;;4.03;;
70733;SDS011;58320;48.804;9.252;2023-07-09T08:26:45;7.75;;;3.97;;
70733;SDS011;58320;48.804;9.252;2023-07-09T08:29:10;6.60;;;4.07;;
70733;SDS011;58320;48.804;9.252;2023-07-09T08:31:36;6.23;;;3.70;;
70733;SDS011;58320;48.804;9.252;2023-07-09T08:34:05;7.38;;;4.32;;
70733;SDS011;58320;48.804;9.252;2023-07-09T08:36:32;6.38;;;3.90;;
70733;SDS011;58320;48.804;9.252;2023-07-09T08:38:58;8.35;;;4.10;;
70733;SDS011;58320;48.804;9.252;2023-07-09T08:47:07;7.87;;;3.80;;
70733;SDS011;58320;48.804;9.252;2023-07-09T08:49:54;7.50;;;3.60;;
70733;SDS011;58320;48.804;9.252;2023-07-09T08:52:36;8.45;;;3.10;;
70733;SDS011;58320;48.804;9.252;2023-07-09T08:55:19;6.13;;;3.50;;
70733;SDS011;58320;48.804;9.252;2023-07-09T08:57:47;5.90;;;3.80;;
70733;SDS011;58320;48.804;9.252;2023-07-09T09:00:33;6.25;;;3.58;;
70733;SDS011;58320;48.804;9.252;2023-07-09T09:05:54;9.73;;;3.88;;
70733;SDS011;58320;48.804;9.252;2023-07-09T09:14:27;7.67;;;3.73;;
70733;SDS011;58320;48.804;9.252;2023-07-09T09:16:57;7.30;;;3.63;;
70733;SDS011;58320;48.804;9.252;2023-07-09T09:19:27;8.70;;;4.00;;
70733;SDS011;58320;48.804;9.252;2023-07-09T09:22:09;7.93;;;4.10;;
70733;SDS011;58320;48.804;9.252;2023-07-09T09:27:36;6.70;;;3.65;;
70733;SDS011;58320;48.804;9.252;2023-07-09T09:30:03;6.28;;;3.88;;
70733;SDS011;58320;48.804;9.252;2023-07-09T09:32:39;6.65;;;3.88;;
70733;SDS011;58320;48.804;9.252;2023-07-09T09:35:14;6.72;;;3.72;;
70733;SDS011;58320;48.804;9.252;2023-07-09T09:37:52;4.97;;;3.33;;
70733;SDS011;58320;48.804;9.252;2023-07-09T09:40:21;5.77;;;3.60;;
70733;SDS011;58320;48.804;9.252;2023-07-09T09:42:49;5.70;;;3.40;;
70733;SDS011;58320;48.804;9.252;2023-07-09T09:45:17;6.00;;;3.28;;
70733;SDS011;58320;48.804;9.252;2023-07-09T09:47:46;5.93;;;3.65;;
70733;SDS011;58320;48.804;9.252;2023-07-09T09:50:18;5.95;;;3.20;;
70733;SDS011;58320;48.804;9.252;2023-07-09T09:52:46;5.55;;;3.30;;
70733;SDS011;58320;48.804;9.252;2023-07-09T09:55:22;7.07;;;3.72;;
70733;SDS011;58320;48.804;9.252;2023-07-09T09:57:51;7.38;;;3.25;;
70733;SDS011;58320;48.804;9.252;2023-07-09T10:00:19;6.95;;;3.53;;
70733;SDS011;58320;48.804;9.252;2023-07-09T10:02:58;4.57;;;3.13;;
70733;SDS011;58320;48.804;9.252;2023-07-09T10:05:29;5.80;;;3.30;;
70733;SDS011;58320;48.804;9.252;2023-07-09T10:10:40;5.95;;;3.55;;
70733;SDS011;58320;48.804;9.252;2023-07-09T10:13:13;5.47;;;3.38;;
70733;SDS011;58320;48.804;9.252;2023-07-09T10:16:03;6.30;;;2.83;;
70733;SDS011;58320;48.804;9.252;2023-07-09T10:18:43;8.38;;;3.03;;
70733;SDS011;58320;48.804;9.252;2023-07-09T10:21:45;7.35;;;3.00;;
70733;SDS011;58320;48.804;9.252;2023-07-09T10:32:43;5.37;;;2.60;;
70733;SDS011;58320;48.804;9.252;2023-07-09T10:35:54;5.70;;;3.00;;
70733;SDS011;58320;48.804;9.252;2023-07-09T10:38:50;9.00;;;3.20;;
70733;SDS011;58320;48.804;9.252;2023-07-09T10:41:48;7.75;;;3.13;;
70733;SDS011;58320;48.804;9.252;2023-07-09T10:44:18;6.82;;;3.45;;
70733;SDS011;58320;48.804;9.252;2023-07-09T10:46:51;6.30;;;2.97;;
70733;SDS011;58320;48.804;9.252;2023-07-09T10:49:34;6.63;;;3.30;;
70733;SDS011;58320;48.804;9.252;2023-07-09T10:52:46;5.47;;;3.10;;
70733;SDS011;58320;48.804;9.252;2023-07-09T10:58:19;6.00;;;3.00;;
70733;SDS011;58320;48.804;9.252;2023-07-09T11:01:07;6.17;;;3.00;;
70733;SDS011;58320;48.804;9.252;2023-07-09T11:03:38;6.17;;;3.43;;
70733;SDS011;58320;48.804;9.252;2023-07-09T11:06:20;5.57;;;3.00;;
70733;SDS011;58320;48.804;9.252;2023-07-09T11:08:55;7.03;;;3.13;;
70733;SDS011;58320;48.804;9.252;2023-07-09T11:11:45;5.70;;;3.03;;
70733;SDS011;58320;48.804;9.252;2023-07-09T11:14:55;6.03;;;3.00;;
70733;SDS011;58320;48.804;9.252;2023-07-09T11:17:17;5.22;;;2.85;;
70733;SDS011;58320;48.804;9.252;2023-07-09T11:19:47;8.20;;;2.92;;
70733;SDS011;58320;48.804;9.252;2023-07-09T11:22:23;6.80;;;3.08;;
70733;SDS011;58320;48.804;9.252;2023-07-09T11:25:08;6.63;;;3.08;;
70733;SDS011;58320;48.804;9.252;2023-07-09T11:27:50;7.27;;;3.07;;
70733;SDS011;58320;48.804;9.252;2023-07-09T11:30:26;6.37;;;3.17;;
70733;SDS011;58320;48.804;9.252;2023-07-09T11:32:58;11.13;;;3.28;;
70733;SDS011;58320;48.804;9.252;2023-07-09T11:35:29;7.32;;;3.10;;
70733;SDS011;58320;48.804;9.252;2023-07-09T11:38:19;6.28;;;3.40;;
70733;SDS011;58320;48.804;9.252;2023-07-09T11:40:52;7.07;;;3.53;;
70733;SDS011;58320;48.804;9.252;2023-07-09T11:43:27;7.32;;;3.10;;
70733;SDS011;58320;48.804;9.252;2023-07-09T11:45:59;6.13;;;3.17;;
70733;SDS011;58320;48.804;9.252;2023-07-09T11:48:42;6.93;;;3.25;;
70733;SDS011;58320;48.804;9.252;2023-07-09T11:51:25;8.65;;;3.55;;
70733;SDS011;58320;48.804;9.252;2023-07-09T11:54:10;6.87;;;3.97;;
70733;SDS011;58320;48.804;9.252;2023-07-09T11:56:40;6.88;;;3.40;;
70733;SDS011;58320;48.804;9.252;2023-07-09T11:59:07;8.20;;;3.90;;
70733;SDS011;58320;48.804;9.252;2023-07-09T12:01:38;6.93;;;3.60;;
70733;SDS011;58320;48.804;9.252;2023-07-09T12:04:12;8.63;;;4.10;;
70733;SDS011;58320;48.804;9.252;2023-07-09T12:06:42;5.50;;;3.30;;
70733;SDS011;58320;48.804;9.252;2023-07-09T12:09:14;7.22;;;3.47;;
70733;SDS011;58320;48.804;9.252;2023-07-09T12:11:44;10.27;;;4.15;;
70733;SDS011;58320;48.804;9.252;2023-07-09T12:14:14;9.52;;;3.88;;
70733;SDS011;58320;48.804;9.252;2023-07-09T12:16:47;9.70;;;3.90;;
70733;SDS011;58320;48.804;9.252;2023-07-09T12:19:17;6.90;;;3.33;;
70733;SDS011;58320;48.804;9.252;2023-07-09T12:21:46;6.23;;;3.80;;
70733;SDS011;58320;48.804;9.252;2023-07-09T12:24:26;6.85;;;3.53;;
70733;SDS011;58320;48.804;9.252;2023-07-09T12:26:59;8.30;;;3.70;;
70733;SDS011;58320;48.804;9.252;2023-07-09T12:29:27;8.13;;;4.00;;
70733;SDS011;58320;48.804;9.252;2023-07-09T12:32:02;7.47;;;3.75;;
70733;SDS011;58320;48.804;9.252;2023-07-09T12:34:36;8.77;;;3.90;;
70733;SDS011;58320;48.804;9.252;2023-07-09T12:37:01;8.73;;;3.60;;
70733;SDS011;58320;48.804;9.252;2023-07-09T12:39:29;8.98;;;4.03;;
70733;SDS011;58320;48.804;9.252;2023-07-09T12:42:01;7.07;;;3.55;;
70733;SDS011;58320;48.804;9.252;2023-07-09T12:44:29;6.63;;;3.58;;
70733;SDS011;58320;48.804;9.252;2023-07-09T12:47:00;7.37;;;3.40;;
70733;SDS011;58320;48.804;9.252;2023-07-09T12:49:28;11.20;;;4.35;;
70733;SDS011;58320;48.804;9.252;2023-07-09T12:52:02;7.00;;;3.60;;
70733;SDS011;58320;48.804;9.252;2023-07-09T12:54:37;7.45;;;3.70;;
70733;SDS011;58320;48.804;9.252;2023-07-09T12:57:03;9.43;;;3.80;;
70733;SDS011;58320;48.804;9.252;2023-07-09T12:59:42;6.65;;;3.17;;
70733;SDS011;58320;48.804;9.252;2023-07-09T13:04:57;7.25;;;3.90;;
70733;SDS011;58320;48.804;9.252;2023-07-09T13:07:32;8.13;;;3.30;;
70733;SDS011;58320;48.804;9.252;2023-07-09T13:10:21;5.70;;;3.47;;
70733;SDS011;58320;48.804;9.252;2023-07-09T13:12:54;6.32;;;3.15;;
70733;SDS011;58320;48.804;9.252;2023-07-09T13:15:29;7.25;;;3.60;;
70733;SDS011;58320;48.804;9.252;2023-07-09T13:18:03;6.85;;;3.38;;
70733;SDS011;58320;48.804;9.252;2023-07-09T13:20:33;7.55;;;3.40;;
70733;SDS011;58320;48.804;9.252;2023-07-09T13:23:08;6.83;;;3.13;;
70733;SDS011;58320;48.804;9.252;2023-07-09T13:25:38;6.90;;;3.10;;
70733;SDS011;58320;48.804;9.252;2023-07-09T13:28:07;5.55;;;2.90;;
70733;SDS011;58320;48.804;9.252;2023-07-09T13:30:41;6.70;;;3.40;;
70733;SDS011;58320;48.804;9.252;2023-07-09T13:33:10;6.10;;;3.78;;
70733;SDS011;58320;48.804;9.252;2023-07-09T13:35:36;8.97;;;2.90;;
70733;SDS011;58320;48.804;9.252;2023-07-09T13:38:03;8.27;;;3.78;;
70733;SDS011;58320;48.804;9.252;2023-07-09T13:40:37;8.65;;;3.20;;
70733;SDS011;58320;48.804;9.252;2023-07-09T13:43:04;7.27;;;3.40;;
70733;SDS011;58320;48.804;9.252;2023-07-09T13:45:36;7.15;;;3.13;;
70733;SDS011;58320;48.804;9.252;2023-07-09T13:48:04;7.25;;;3.67;;
70733;SDS011;58320;48.804;9.252;2023-07-09T13:50:35;6.80;;;3.53;;
70733;SDS011;58320;48.804;9.252;2023-07-09T13:53:01;5.53;;;2.80;;
70733;SDS011;58320;48.804;9.252;2023-07-09T13:55:27;6.70;;;3.50;;
70733;SDS011;58320;48.804;9.252;2023-07-09T13:57:52;6.23;;;3.27;;
70733;SDS011;58320;48.804;9.252;2023-07-09T14:00:18;7.65;;;3.30;;
70733;SDS011;58320;48.804;9.252;2023-07-09T14:02:45;7.93;;;3.42;;
70733;SDS011;58320;48.804;9.252;2023-07-09T14:05:12;8.77;;;3.42;;
70733;SDS011;58320;48.804;9.252;2023-07-09T14:07:39;5.20;;;3.23;;
70733;SDS011;58320;48.804;9.252;2023-07-09T14:10:10;9.10;;;3.08;;
70733;SDS011;58320;48.804;9.252;2023-07-09T14:12:40;5.88;;;3.58;;
70733;SDS011;58320;48.804;9.252;2023-07-09T14:15:12;6.57;;;3.20;;
70733;SDS011;58320;48.804;9.252;2023-07-09T14:17:44;5.55;;;2.95;;
70733;SDS011;58320;48.804;9.252;2023-07-09T14:20:12;6.17;;;3.33;;
70733;SDS011;58320;48.804;9.252;2023-07-09T14:22:40;5.90;;;2.90;;
70733;SDS011;58320;48.804;9.252;2023-07-09T14:25:14;7.88;;;2.88;;
70733;SDS011;58320;48.804;9.252;2023-07-09T14:27:45;6.25;;;3.63;;
70733;SDS011;58320;48.804;9.252;2023-07-09T14:30:14;6.15;;;3.10;;
70733;SDS011;58320;48.804;9.252;2023-07-09T14:32:41;5.97;;;3.10;;
70733;SDS011;58320;48.804;9.252;2023-07-09T14:35:19;7.72;;;3.22;;
70733;SDS011;58320;48.804;9.252;2023-07-09T14:37:48;7.25;;;3.30;;
70733;SDS011;58320;48.804;9.252;2023-07-09T14:40:18;5.65;;;3.38;;
70733;SDS011;58320;48.804;9.252;2023-07-09T14:42:45;8.85;;;3.05;;
70733;SDS011;58320;48.804;9.252;2023-07-09T14:45:16;8.60;;;3.37;;
70733;SDS011;58320;48.804;9.252;2023-07-09T14:47:47;5.30;;;3.50;;
70733;SDS011;58320;48.804;9.252;2023-07-09T14:50:13;5.20;;;2.70;;
70733;SDS011;58320;48.804;9.252;2023-07-09T14:52:39;6.20;;;3.08;;
70733;SDS011;58320;48.804;9.252;2023-07-09T14:55:12;4.20;;;2.88;;
70733;SDS011;58320;48.804;9.252;2023-07-09T14:57:44;5.20;;;3.07;;
70733;SDS011;58320;48.804;9.252;2023-07-09T15:00:13;6.20;;;2.95;;
70733;SDS011;58320;48.804;9.252;2023-07-09T15:02:45;5.72;;;3.40;;
70733;SDS011;58320;48.804;9.252;2023-07-09T15:05:21;6.10;;;3.58;;
70733;SDS011;58320;48.804;9.252;2023-07-09T15:07:50;6.28;;;3.40;;
70733;SDS011;58320;48.804;9.252;2023-07-09T15:10:18;7.63;;;3.43;;
70733;SDS011;58320;48.804;9.252;2023-07-09T15:12:49;5.82;;;3.30;;
70733;SDS011;58320;48.804;9.252;2023-07-09T15:15:28;7.30;;;3.53;;
70733;SDS011;58320;48.804;9.252;2023-07-09T15:17:56;6.30;;;3.47;;
70733;SDS011;58320;48.804;9.252;2023-07-09T15:20:26;6.68;;;3.40;;
70733;SDS011;58320;48.804;9.252;2023-07-09T15:22:55;6.37;;;3.27;;
70733;SDS011;58320;48.804;9.252;2023-07-09T15:25:27;6.45;;;3.25;;
70733;SDS011;58320;48.804;9.252;2023-07-09T15:27:54;5.13;;;3.30;;
70733;SDS011;58320;48.804;9.252;2023-07-09T15:30:23;6.22;;;3.55;;
70733;SDS011;58320;48.804;9.252;2023-07-09T15:32:58;6.45;;;3.60;;
70733;SDS011;58320;48.804;9.252;2023-07-09T15:35:26;7.40;;;3.67;;
70733;SDS011;58320;48.804;9.252;2023-07-09T15:37:57;4.38;;;2.97;;
70733;SDS011;58320;48.804;9.252;2023-07-09T15:40:24;6.28;;;3.35;;
70733;SDS011;58320;48.804;9.252;2023-07-09T15:42:55;5.55;;;3.30;;
70733;SDS011;58320;48.804;9.252;2023-07-09T15:45:24;5.23;;;2.93;;